sensor_id;sensor_type;location;lat;lon;timestamp;temperature;humidity
48328;DHT22;34136;51.022;7.082;2023-06-22T00:02:12;23.00;99.90
48328;DHT22;34136;51.022;7.082;2023-06-22T00:04:58;22.90;99.90
48328;DHT22;34136;51.022;7.082;2023-06-22T00:07:44;23.10;99.90
48328;DHT22;34136;51.022;7.082;2023-06-22T00:10:30;23.20;99.90
48328;DHT22;34136;51.022;7.082;2023-06-22T00:13:17;23.20;99.90
48328;DHT22;34136;51.022;7.082;2023-06-22T00:16:03;23.20;99.90
48328;DHT22;34136;51.022;7.082;2023-06-22T00:18:49;23.20;99.90
48328;DHT22;34136;51.022;7.082;2023-06-22T00:21:36;23.20;99.90
48328;DHT22;34136;51.022;7.082;2023-06-22T00:24:22;23.20;99.90
48328;DHT22;34136;51.022;7.082;2023-06-22T00:27:08;23.30;99.90
48328;DHT22;34136;51.022;7.082;2023-06-22T00:29:54;23.20;99.90
48328;DHT22;34136;51.022;7.082;2023-06-22T00:32:41;23.30;99.90
48328;DHT22;34136;51.022;7.082;2023-06-22T00:35:27;23.30;99.90
48328;DHT22;34136;51.022;7.082;2023-06-22T00:38:13;23.40;99.90
48328;DHT22;34136;51.022;7.082;2023-06-22T00:41:01;23.40;99.90
48328;DHT22;34136;51.022;7.082;2023-06-22T00:43:48;23.30;99.90
48328;DHT22;34136;51.022;7.082;2023-06-22T00:46:34;23.30;99.90
48328;DHT22;34136;51.022;7.082;2023-06-22T00:49:20;23.40;99.90
48328;DHT22;34136;51.022;7.082;2023-06-22T00:52:07;23.40;99.90
48328;DHT22;34136;51.022;7.082;2023-06-22T00:54:55;23.30;99.90
48328;DHT22;34136;51.022;7.082;2023-06-22T00:57:42;23.20;99.90
48328;DHT22;34136;51.022;7.082;2023-06-22T01:00:29;23.20;99.90
48328;DHT22;34136;51.022;7.082;2023-06-22T01:03:15;23.30;99.90
48328;DHT22;34136;51.022;7.082;2023-06-22T01:06:12;23.30;99.90
48328;DHT22;34136;51.022;7.082;2023-06-22T01:09:14;23.30;99.90
48328;DHT22;34136;51.022;7.082;2023-06-22T01:12:04;23.30;99.90
48328;DHT22;34136;51.022;7.082;2023-06-22T01:14:58;23.20;99.90
48328;DHT22;34136;51.022;7.082;2023-06-22T01:17:48;23.00;99.90
48328;DHT22;34136;51.022;7.082;2023-06-22T01:20:36;22.70;99.90
48328;DHT22;34136;51.022;7.082;2023-06-22T01:23:33;22.80;99.90
48328;DHT22;34136;51.022;7.082;2023-06-22T01:29:24;22.70;99.90
48328;DHT22;34136;51.022;7.082;2023-06-22T01:32:12;22.70;99.90
48328;DHT22;34136;51.022;7.082;2023-06-22T01:35:01;22.80;99.90
48328;DHT22;34136;51.022;7.082;2023-06-22T01:37:51;22.90;99.90
48328;DHT22;34136;51.022;7.082;2023-06-22T01:40:38;22.90;99.90
48328;DHT22;34136;51.022;7.082;2023-06-22T01:43:28;22.90;99.90
48328;DHT22;34136;51.022;7.082;2023-06-22T01:46:15;22.90;99.90
48328;DHT22;34136;51.022;7.082;2023-06-22T01:49:02;22.80;99.90
48328;DHT22;34136;51.022;7.082;2023-06-22T01:51:50;22.70;99.90
48328;DHT22;34136;51.022;7.082;2023-06-22T01:54:39;22.70;99.90
48328;DHT22;34136;51.022;7.082;2023-06-22T01:57:26;22.80;99.90
48328;DHT22;34136;51.022;7.082;2023-06-22T02:00:18;22.70;99.90
48328;DHT22;34136;51.022;7.082;2023-06-22T02:03:19;22.80;99.90
48328;DHT22;34136;51.022;7.082;2023-06-22T02:06:16;22.80;99.90
48328;DHT22;34136;51.022;7.082;2023-06-22T02:09:17;22.70;99.90
48328;DHT22;34136;51.022;7.082;2023-06-22T02:12:05;22.80;99.90
48328;DHT22;34136;51.022;7.082;2023-06-22T02:14:52;22.80;99.90
48328;DHT22;34136;51.022;7.082;2023-06-22T02:17:40;22.80;99.90
48328;DHT22;34136;51.022;7.082;2023-06-22T02:20:26;22.90;99.90
48328;DHT22;34136;51.022;7.082;2023-06-22T02:23:13;22.90;99.90
48328;DHT22;34136;51.022;7.082;2023-06-22T02:25:59;22.90;99.90
48328;DHT22;34136;51.022;7.082;2023-06-22T02:28:45;22.90;99.90
48328;DHT22;34136;51.022;7.082;2023-06-22T02:31:31;22.90;99.90
48328;DHT22;34136;51.022;7.082;2023-06-22T02:34:18;22.90;99.90
48328;DHT22;34136;51.022;7.082;2023-06-22T02:37:05;22.90;99.90
48328;DHT22;34136;51.022;7.082;2023-06-22T02:39:52;22.80;99.90
48328;DHT22;34136;51.022;7.082;2023-06-22T02:42:40;22.80;99.90
48328;DHT22;34136;51.022;7.082;2023-06-22T02:45:26;22.80;99.90
48328;DHT22;34136;51.022;7.082;2023-06-22T02:48:12;22.80;99.90
48328;DHT22;34136;51.022;7.082;2023-06-22T02:50:58;22.80;99.90
48328;DHT22;34136;51.022;7.082;2023-06-22T02:53:45;22.80;99.90
48328;DHT22;34136;51.022;7.082;2023-06-22T02:56:33;22.70;99.90
48328;DHT22;34136;51.022;7.082;2023-06-22T02:59:21;22.60;99.90
48328;DHT22;34136;51.022;7.082;2023-06-22T03:02:08;22.60;99.90
48328;DHT22;34136;51.022;7.082;2023-06-22T03:04:55;22.60;99.90
48328;DHT22;34136;51.022;7.082;2023-06-22T03:07:41;22.60;99.90
48328;DHT22;34136;51.022;7.082;2023-06-22T03:10:29;22.60;99.90
48328;DHT22;34136;51.022;7.082;2023-06-22T03:13:15;22.60;99.90
48328;DHT22;34136;51.022;7.082;2023-06-22T03:16:01;22.60;99.90
48328;DHT22;34136;51.022;7.082;2023-06-22T03:18:47;22.60;99.90
48328;DHT22;34136;51.022;7.082;2023-06-22T03:21:34;22.50;99.90
48328;DHT22;34136;51.022;7.082;2023-06-22T03:24:20;22.40;99.90
48328;DHT22;34136;51.022;7.082;2023-06-22T03:27:06;22.40;99.90
48328;DHT22;34136;51.022;7.082;2023-06-22T03:29:54;22.40;99.90
48328;DHT22;34136;51.022;7.082;2023-06-22T03:32:40;22.40;99.90
48328;DHT22;34136;51.022;7.082;2023-06-22T03:35:26;22.40;99.90
48328;DHT22;34136;51.022;7.082;2023-06-22T03:38:12;22.40;99.90
48328;DHT22;34136;51.022;7.082;2023-06-22T03:40:58;22.50;99.90
48328;DHT22;34136;51.022;7.082;2023-06-22T03:43:45;22.40;99.90
48328;DHT22;34136;51.022;7.082;2023-06-22T03:46:32;22.40;99.90
48328;DHT22;34136;51.022;7.082;2023-06-22T03:49:18;22.40;99.90
48328;DHT22;34136;51.022;7.082;2023-06-22T03:52:05;22.50;99.90
48328;DHT22;34136;51.022;7.082;2023-06-22T03:54:52;22.50;99.90
48328;DHT22;34136;51.022;7.082;2023-06-22T03:57:38;22.50;99.90
48328;DHT22;34136;51.022;7.082;2023-06-22T04:00:25;22.50;99.90
48328;DHT22;34136;51.022;7.082;2023-06-22T04:03:11;22.60;99.90
48328;DHT22;34136;51.022;7.082;2023-06-22T04:05:57;22.50;99.90
48328;DHT22;34136;51.022;7.082;2023-06-22T04:08:45;22.60;99.90
48328;DHT22;34136;51.022;7.082;2023-06-22T04:11:32;22.60;99.90
48328;DHT22;34136;51.022;7.082;2023-06-22T04:14:19;22.60;99.90
48328;DHT22;34136;51.022;7.082;2023-06-22T04:17:05;22.50;99.90
48328;DHT22;34136;51.022;7.082;2023-06-22T04:19:52;22.50;99.90
48328;DHT22;34136;51.022;7.082;2023-06-22T04:22:38;22.50;99.90
48328;DHT22;34136;51.022;7.082;2023-06-22T04:25:24;22.50;99.90
48328;DHT22;34136;51.022;7.082;2023-06-22T04:28:11;22.50;99.90
48328;DHT22;34136;51.022;7.082;2023-06-22T04:30:57;22.40;99.90
48328;DHT22;34136;51.022;7.082;2023-06-22T04:33:43;22.40;99.90
48328;DHT22;34136;51.022;7.082;2023-06-22T04:36:30;22.50;99.90
48328;DHT22;34136;51.022;7.082;2023-06-22T04:39:16;22.40;99.90
48328;DHT22;34136;51.022;7.082;2023-06-22T04:42:03;22.50;99.90
48328;DHT22;34136;51.022;7.082;2023-06-22T04:44:49;22.40;99.90
48328;DHT22;34136;51.022;7.082;2023-06-22T04:47:35;22.50;99.90
48328;DHT22;34136;51.022;7.082;2023-06-22T04:50:21;22.50;99.90
48328;DHT22;34136;51.022;7.082;2023-06-22T04:53:08;22.50;99.90
48328;DHT22;34136;51.022;7.082;2023-06-22T04:55:54;22.60;99.90
48328;DHT22;34136;51.022;7.082;2023-06-22T04:58:40;22.60;99.90
48328;DHT22;34136;51.022;7.082;2023-06-22T05:01:26;22.60;99.90
48328;DHT22;34136;51.022;7.082;2023-06-22T05:04:12;22.70;99.90
48328;DHT22;34136;51.022;7.082;2023-06-22T05:06:59;22.80;99.90
48328;DHT22;34136;51.022;7.082;2023-06-22T05:09:46;22.90;99.90
48328;DHT22;34136;51.022;7.082;2023-06-22T05:12:32;22.90;99.90
48328;DHT22;34136;51.022;7.082;2023-06-22T05:15:19;23.00;99.90
48328;DHT22;34136;51.022;7.082;2023-06-22T05:18:06;23.00;99.90
48328;DHT22;34136;51.022;7.082;2023-06-22T05:20:52;23.00;99.90
48328;DHT22;34136;51.022;7.082;2023-06-22T05:23:38;23.00;99.90
48328;DHT22;34136;51.022;7.082;2023-06-22T05:26:25;23.00;99.90
48328;DHT22;34136;51.022;7.082;2023-06-22T05:29:11;23.00;99.90
48328;DHT22;34136;51.022;7.082;2023-06-22T05:31:58;23.00;99.90
48328;DHT22;34136;51.022;7.082;2023-06-22T05:34:45;23.10;99.90
48328;DHT22;34136;51.022;7.082;2023-06-22T05:37:31;23.10;99.90
48328;DHT22;34136;51.022;7.082;2023-06-22T05:40:17;23.20;99.90
48328;DHT22;34136;51.022;7.082;2023-06-22T05:43:03;23.20;99.90
48328;DHT22;34136;51.022;7.082;2023-06-22T05:45:49;23.20;99.90
48328;DHT22;34136;51.022;7.082;2023-06-22T05:48:36;23.10;99.90
48328;DHT22;34136;51.022;7.082;2023-06-22T05:51:22;23.00;99.90
48328;DHT22;34136;51.022;7.082;2023-06-22T05:54:09;23.00;99.90
48328;DHT22;34136;51.022;7.082;2023-06-22T05:56:55;22.90;99.90
48328;DHT22;34136;51.022;7.082;2023-06-22T05:59:42;23.00;99.90
48328;DHT22;34136;51.022;7.082;2023-06-22T06:02:28;22.90;99.90
48328;DHT22;34136;51.022;7.082;2023-06-22T06:05:14;23.10;99.90
48328;DHT22;34136;51.022;7.082;2023-06-22T06:08:02;23.20;99.90
48328;DHT22;34136;51.022;7.082;2023-06-22T06:10:49;23.30;99.90
48328;DHT22;34136;51.022;7.082;2023-06-22T06:13:36;23.40;99.90
48328;DHT22;34136;51.022;7.082;2023-06-22T06:16:22;23.60;99.90
48328;DHT22;34136;51.022;7.082;2023-06-22T06:19:08;23.60;99.90
48328;DHT22;34136;51.022;7.082;2023-06-22T06:21:55;23.70;99.90
48328;DHT22;34136;51.022;7.082;2023-06-22T06:24:41;23.90;99.90
48328;DHT22;34136;51.022;7.082;2023-06-22T06:27:28;24.30;99.90
48328;DHT22;34136;51.022;7.082;2023-06-22T06:30:15;24.60;99.90
48328;DHT22;34136;51.022;7.082;2023-06-22T06:33:02;24.90;99.90
48328;DHT22;34136;51.022;7.082;2023-06-22T06:35:48;25.20;99.90
48328;DHT22;34136;51.022;7.082;2023-06-22T06:38:34;25.30;99.90
48328;DHT22;34136;51.022;7.082;2023-06-22T06:41:21;25.60;99.90
48328;DHT22;34136;51.022;7.082;2023-06-22T06:44:07;25.60;99.90
48328;DHT22;34136;51.022;7.082;2023-06-22T06:46:53;25.40;99.90
48328;DHT22;34136;51.022;7.082;2023-06-22T06:49:40;25.30;99.90
48328;DHT22;34136;51.022;7.082;2023-06-22T06:52:26;25.40;99.90
48328;DHT22;34136;51.022;7.082;2023-06-22T06:55:13;25.60;99.90
48328;DHT22;34136;51.022;7.082;2023-06-22T06:57:59;25.70;99.90
48328;DHT22;34136;51.022;7.082;2023-06-22T07:00:45;25.80;99.90
48328;DHT22;34136;51.022;7.082;2023-06-22T07:03:31;26.00;99.90
48328;DHT22;34136;51.022;7.082;2023-06-22T07:06:18;26.10;99.90
48328;DHT22;34136;51.022;7.082;2023-06-22T07:09:04;26.30;99.90
48328;DHT22;34136;51.022;7.082;2023-06-22T07:11:50;26.40;99.90
48328;DHT22;34136;51.022;7.082;2023-06-22T07:14:37;26.30;99.90
48328;DHT22;34136;51.022;7.082;2023-06-22T07:17:23;26.20;99.90
48328;DHT22;34136;51.022;7.082;2023-06-22T07:20:10;26.10;99.90
48328;DHT22;34136;51.022;7.082;2023-06-22T07:22:56;26.10;99.90
48328;DHT22;34136;51.022;7.082;2023-06-22T07:25:43;26.10;99.90
48328;DHT22;34136;51.022;7.082;2023-06-22T07:28:29;26.30;99.90
48328;DHT22;34136;51.022;7.082;2023-06-22T07:31:15;26.60;99.90
48328;DHT22;34136;51.022;7.082;2023-06-22T07:34:02;26.90;99.90
48328;DHT22;34136;51.022;7.082;2023-06-22T07:36:48;27.20;99.90
48328;DHT22;34136;51.022;7.082;2023-06-22T07:39:35;27.40;99.90
48328;DHT22;34136;51.022;7.082;2023-06-22T07:42:21;27.20;99.90
48328;DHT22;34136;51.022;7.082;2023-06-22T07:45:08;27.10;99.90
48328;DHT22;34136;51.022;7.082;2023-06-22T07:47:54;27.30;99.90
48328;DHT22;34136;51.022;7.082;2023-06-22T07:50:40;27.60;99.90
48328;DHT22;34136;51.022;7.082;2023-06-22T07:53:27;27.80;99.90
48328;DHT22;34136;51.022;7.082;2023-06-22T07:56:14;27.70;99.90
48328;DHT22;34136;51.022;7.082;2023-06-22T07:59:00;27.70;99.90
48328;DHT22;34136;51.022;7.082;2023-06-22T08:01:47;27.80;99.90
48328;DHT22;34136;51.022;7.082;2023-06-22T08:04:33;28.00;99.90
48328;DHT22;34136;51.022;7.082;2023-06-22T08:07:19;28.20;99.90
48328;DHT22;34136;51.022;7.082;2023-06-22T08:10:06;28.30;99.90
48328;DHT22;34136;51.022;7.082;2023-06-22T08:12:52;28.40;99.90
48328;DHT22;34136;51.022;7.082;2023-06-22T08:15:39;28.20;99.90
48328;DHT22;34136;51.022;7.082;2023-06-22T08:18:25;28.30;99.90
48328;DHT22;34136;51.022;7.082;2023-06-22T08:21:11;28.70;99.90
48328;DHT22;34136;51.022;7.082;2023-06-22T08:23:58;28.70;99.90
48328;DHT22;34136;51.022;7.082;2023-06-22T08:26:44;28.50;99.90
48328;DHT22;34136;51.022;7.082;2023-06-22T08:29:30;28.80;99.90
48328;DHT22;34136;51.022;7.082;2023-06-22T08:32:17;28.80;99.90
48328;DHT22;34136;51.022;7.082;2023-06-22T08:35:03;29.00;99.90
48328;DHT22;34136;51.022;7.082;2023-06-22T08:37:51;29.50;99.90
48328;DHT22;34136;51.022;7.082;2023-06-22T08:40:37;29.40;99.90
48328;DHT22;34136;51.022;7.082;2023-06-22T08:43:24;29.60;99.90
48328;DHT22;34136;51.022;7.082;2023-06-22T08:46:13;29.70;99.90
48328;DHT22;34136;51.022;7.082;2023-06-22T08:49:00;29.50;99.90
48328;DHT22;34136;51.022;7.082;2023-06-22T08:51:46;29.70;99.90
48328;DHT22;34136;51.022;7.082;2023-06-22T08:54:32;30.00;99.90
48328;DHT22;34136;51.022;7.082;2023-06-22T08:57:19;29.90;99.90
48328;DHT22;34136;51.022;7.082;2023-06-22T09:00:07;30.10;99.90
48328;DHT22;34136;51.022;7.082;2023-06-22T09:02:54;30.00;99.90
48328;DHT22;34136;51.022;7.082;2023-06-22T09:05:40;29.80;99.90
48328;DHT22;34136;51.022;7.082;2023-06-22T09:08:27;29.70;99.90
48328;DHT22;34136;51.022;7.082;2023-06-22T09:11:13;29.90;99.90
48328;DHT22;34136;51.022;7.082;2023-06-22T09:13:59;29.70;99.90
48328;DHT22;34136;51.022;7.082;2023-06-22T09:16:46;29.50;99.90
48328;DHT22;34136;51.022;7.082;2023-06-22T09:19:33;29.70;99.90
48328;DHT22;34136;51.022;7.082;2023-06-22T09:22:19;30.20;99.90
48328;DHT22;34136;51.022;7.082;2023-06-22T09:25:06;30.20;99.90
48328;DHT22;34136;51.022;7.082;2023-06-22T09:27:52;29.80;99.90
48328;DHT22;34136;51.022;7.082;2023-06-22T09:30:39;29.80;99.90
48328;DHT22;34136;51.022;7.082;2023-06-22T09:33:26;30.00;99.90
48328;DHT22;34136;51.022;7.082;2023-06-22T09:36:13;30.10;99.90
48328;DHT22;34136;51.022;7.082;2023-06-22T09:39:00;30.30;99.90
48328;DHT22;34136;51.022;7.082;2023-06-22T09:41:46;30.40;99.90
48328;DHT22;34136;51.022;7.082;2023-06-22T09:44:32;30.50;99.90
48328;DHT22;34136;51.022;7.082;2023-06-22T09:47:19;30.30;99.90
48328;DHT22;34136;51.022;7.082;2023-06-22T09:50:06;30.00;99.90
48328;DHT22;34136;51.022;7.082;2023-06-22T09:52:52;30.20;99.90
48328;DHT22;34136;51.022;7.082;2023-06-22T09:55:38;30.40;99.90
48328;DHT22;34136;51.022;7.082;2023-06-22T09:58:25;30.80;99.90
48328;DHT22;34136;51.022;7.082;2023-06-22T10:01:12;30.90;99.90
48328;DHT22;34136;51.022;7.082;2023-06-22T10:03:58;30.80;99.90
48328;DHT22;34136;51.022;7.082;2023-06-22T10:06:45;30.20;99.90
48328;DHT22;34136;51.022;7.082;2023-06-22T10:09:30;30.20;99.90
48328;DHT22;34136;51.022;7.082;2023-06-22T10:12:17;30.40;99.90
48328;DHT22;34136;51.022;7.082;2023-06-22T10:15:04;30.40;99.90
48328;DHT22;34136;51.022;7.082;2023-06-22T10:17:51;30.20;99.90
48328;DHT22;34136;51.022;7.082;2023-06-22T10:20:37;30.20;99.90
48328;DHT22;34136;51.022;7.082;2023-06-22T10:23:23;30.20;99.90
48328;DHT22;34136;51.022;7.082;2023-06-22T10:26:10;30.00;99.90
48328;DHT22;34136;51.022;7.082;2023-06-22T10:28:58;29.90;99.90
48328;DHT22;34136;51.022;7.082;2023-06-22T10:31:44;29.90;99.90
48328;DHT22;34136;51.022;7.082;2023-06-22T10:34:31;30.00;99.90
48328;DHT22;34136;51.022;7.082;2023-06-22T10:37:18;30.20;99.90
48328;DHT22;34136;51.022;7.082;2023-06-22T10:40:04;30.30;99.90
48328;DHT22;34136;51.022;7.082;2023-06-22T10:42:51;30.30;99.90
48328;DHT22;34136;51.022;7.082;2023-06-22T10:45:37;30.20;99.90
48328;DHT22;34136;51.022;7.082;2023-06-22T10:48:23;30.00;99.90
48328;DHT22;34136;51.022;7.082;2023-06-22T10:51:10;30.00;99.90
48328;DHT22;34136;51.022;7.082;2023-06-22T10:53:56;29.90;99.90
48328;DHT22;34136;51.022;7.082;2023-06-22T10:56:43;29.40;99.90
48328;DHT22;34136;51.022;7.082;2023-06-22T10:59:29;29.10;99.90
48328;DHT22;34136;51.022;7.082;2023-06-22T11:02:15;28.60;99.90
48328;DHT22;34136;51.022;7.082;2023-06-22T11:05:02;28.40;99.90
48328;DHT22;34136;51.022;7.082;2023-06-22T11:07:48;28.10;99.90
48328;DHT22;34136;51.022;7.082;2023-06-22T11:10:35;28.00;99.90
48328;DHT22;34136;51.022;7.082;2023-06-22T11:13:21;27.60;99.90
48328;DHT22;34136;51.022;7.082;2023-06-22T11:16:08;27.30;99.90
48328;DHT22;34136;51.022;7.082;2023-06-22T11:18:54;27.10;99.90
48328;DHT22;34136;51.022;7.082;2023-06-22T11:21:41;26.90;99.90
48328;DHT22;34136;51.022;7.082;2023-06-22T11:24:27;26.80;99.90
48328;DHT22;34136;51.022;7.082;2023-06-22T11:27:14;26.70;99.90
48328;DHT22;34136;51.022;7.082;2023-06-22T11:30:00;26.50;99.90
48328;DHT22;34136;51.022;7.082;2023-06-22T11:32:47;26.40;1.00
48328;DHT22;34136;51.022;7.082;2023-06-22T11:35:33;26.10;1.00
48328;DHT22;34136;51.022;7.082;2023-06-22T11:38:20;26.00;1.00
48328;DHT22;34136;51.022;7.082;2023-06-22T11:41:07;25.70;1.00
48328;DHT22;34136;51.022;7.082;2023-06-22T11:43:54;25.70;1.00
48328;DHT22;34136;51.022;7.082;2023-06-22T11:46:40;25.60;1.00
48328;DHT22;34136;51.022;7.082;2023-06-22T11:49:27;25.60;1.00
48328;DHT22;34136;51.022;7.082;2023-06-22T11:52:14;25.60;1.00
48328;DHT22;34136;51.022;7.082;2023-06-22T11:55:00;25.70;1.00
48328;DHT22;34136;51.022;7.082;2023-06-22T11:57:57;25.40;1.00
48328;DHT22;34136;51.022;7.082;2023-06-22T12:00:44;24.90;1.00
48328;DHT22;34136;51.022;7.082;2023-06-22T12:03:30;24.60;1.00
48328;DHT22;34136;51.022;7.082;2023-06-22T12:06:17;24.70;1.00
48328;DHT22;34136;51.022;7.082;2023-06-22T12:09:03;24.90;1.00
48328;DHT22;34136;51.022;7.082;2023-06-22T12:11:52;25.10;1.00
48328;DHT22;34136;51.022;7.082;2023-06-22T12:14:39;25.40;1.00
48328;DHT22;34136;51.022;7.082;2023-06-22T12:17:25;25.60;1.00
48328;DHT22;34136;51.022;7.082;2023-06-22T12:20:11;25.90;1.00
48328;DHT22;34136;51.022;7.082;2023-06-22T12:22:58;26.10;1.00
48328;DHT22;34136;51.022;7.082;2023-06-22T12:25:45;25.90;1.00
48328;DHT22;34136;51.022;7.082;2023-06-22T12:28:31;25.80;1.00
48328;DHT22;34136;51.022;7.082;2023-06-22T12:31:17;25.90;1.00
48328;DHT22;34136;51.022;7.082;2023-06-22T12:34:04;25.80;1.00
48328;DHT22;34136;51.022;7.082;2023-06-22T12:36:50;25.50;1.00
48328;DHT22;34136;51.022;7.082;2023-06-22T12:39:39;25.20;1.00
48328;DHT22;34136;51.022;7.082;2023-06-22T12:42:26;25.10;1.00
48328;DHT22;34136;51.022;7.082;2023-06-22T12:45:12;25.30;1.00
48328;DHT22;34136;51.022;7.082;2023-06-22T12:47:59;25.40;1.00
48328;DHT22;34136;51.022;7.082;2023-06-22T12:50:46;25.70;1.00
48328;DHT22;34136;51.022;7.082;2023-06-22T12:53:32;25.80;1.00
48328;DHT22;34136;51.022;7.082;2023-06-22T12:56:18;25.80;1.00
48328;DHT22;34136;51.022;7.082;2023-06-22T12:59:05;25.90;1.00
48328;DHT22;34136;51.022;7.082;2023-06-22T13:01:51;26.20;1.00
48328;DHT22;34136;51.022;7.082;2023-06-22T13:04:37;26.40;1.00
48328;DHT22;34136;51.022;7.082;2023-06-22T13:07:24;26.70;1.00
48328;DHT22;34136;51.022;7.082;2023-06-22T13:10:10;26.70;99.90
48328;DHT22;34136;51.022;7.082;2023-06-22T13:12:56;26.70;99.90
48328;DHT22;34136;51.022;7.082;2023-06-22T13:15:43;26.50;1.40
48328;DHT22;34136;51.022;7.082;2023-06-22T13:18:29;26.90;99.90
48328;DHT22;34136;51.022;7.082;2023-06-22T13:21:16;27.20;99.90
48328;DHT22;34136;51.022;7.082;2023-06-22T13:24:03;26.80;99.90
48328;DHT22;34136;51.022;7.082;2023-06-22T13:26:49;26.80;99.90
48328;DHT22;34136;51.022;7.082;2023-06-22T13:29:36;26.90;99.90
48328;DHT22;34136;51.022;7.082;2023-06-22T13:32:22;27.10;99.90
48328;DHT22;34136;51.022;7.082;2023-06-22T13:35:11;26.90;99.90
48328;DHT22;34136;51.022;7.082;2023-06-22T13:37:58;27.20;99.90
48328;DHT22;34136;51.022;7.082;2023-06-22T13:40:44;27.10;99.90
48328;DHT22;34136;51.022;7.082;2023-06-22T13:43:31;27.30;99.90
48328;DHT22;34136;51.022;7.082;2023-06-22T13:46:17;27.30;99.90
48328;DHT22;34136;51.022;7.082;2023-06-22T13:49:04;27.40;99.90
48328;DHT22;34136;51.022;7.082;2023-06-22T13:51:51;27.40;99.90
48328;DHT22;34136;51.022;7.082;2023-06-22T13:54:38;27.50;99.90
48328;DHT22;34136;51.022;7.082;2023-06-22T13:57:24;27.50;99.90
48328;DHT22;34136;51.022;7.082;2023-06-22T14:00:12;27.60;99.90
48328;DHT22;34136;51.022;7.082;2023-06-22T14:02:58;28.00;99.90
48328;DHT22;34136;51.022;7.082;2023-06-22T14:05:45;27.80;99.90
48328;DHT22;34136;51.022;7.082;2023-06-22T14:08:32;27.60;99.90
48328;DHT22;34136;51.022;7.082;2023-06-22T14:11:19;27.40;99.90
48328;DHT22;34136;51.022;7.082;2023-06-22T14:14:06;27.60;99.90
48328;DHT22;34136;51.022;7.082;2023-06-22T14:16:52;27.80;99.90
48328;DHT22;34136;51.022;7.082;2023-06-22T14:19:39;27.90;99.90
48328;DHT22;34136;51.022;7.082;2023-06-22T14:22:25;27.80;99.90
48328;DHT22;34136;51.022;7.082;2023-06-22T14:25:12;27.70;99.90
48328;DHT22;34136;51.022;7.082;2023-06-22T14:27:58;27.60;99.90
48328;DHT22;34136;51.022;7.082;2023-06-22T14:30:44;27.60;99.90
48328;DHT22;34136;51.022;7.082;2023-06-22T14:33:31;27.30;99.90
48328;DHT22;34136;51.022;7.082;2023-06-22T14:36:17;27.20;99.90
48328;DHT22;34136;51.022;7.082;2023-06-22T14:39:04;27.30;99.90
48328;DHT22;34136;51.022;7.082;2023-06-22T14:41:50;27.20;99.90
48328;DHT22;34136;51.022;7.082;2023-06-22T14:44:37;27.30;99.90
48328;DHT22;34136;51.022;7.082;2023-06-22T14:47:23;27.30;99.90
48328;DHT22;34136;51.022;7.082;2023-06-22T14:50:10;26.90;99.90
48328;DHT22;34136;51.022;7.082;2023-06-22T14:52:56;27.00;99.90
48328;DHT22;34136;51.022;7.082;2023-06-22T14:55:42;27.10;99.90
48328;DHT22;34136;51.022;7.082;2023-06-22T14:58:30;27.10;99.90
48328;DHT22;34136;51.022;7.082;2023-06-22T15:01:17;27.00;99.90
48328;DHT22;34136;51.022;7.082;2023-06-22T15:04:04;26.90;99.90
48328;DHT22;34136;51.022;7.082;2023-06-22T15:06:50;26.80;99.90
48328;DHT22;34136;51.022;7.082;2023-06-22T15:09:36;26.80;99.90
48328;DHT22;34136;51.022;7.082;2023-06-22T15:12:23;26.50;99.90
48328;DHT22;34136;51.022;7.082;2023-06-22T15:15:09;26.10;99.90
48328;DHT22;34136;51.022;7.082;2023-06-22T15:17:56;25.50;1.00
48328;DHT22;34136;51.022;7.082;2023-06-22T15:20:43;25.40;1.00
48328;DHT22;34136;51.022;7.082;2023-06-22T15:23:30;25.10;1.00
48328;DHT22;34136;51.022;7.082;2023-06-22T15:26:17;25.00;1.00
48328;DHT22;34136;51.022;7.082;2023-06-22T15:29:03;25.30;1.00
48328;DHT22;34136;51.022;7.082;2023-06-22T15:31:51;25.60;1.00
48328;DHT22;34136;51.022;7.082;2023-06-22T15:34:38;25.70;1.00
48328;DHT22;34136;51.022;7.082;2023-06-22T15:37:24;25.50;1.00
48328;DHT22;34136;51.022;7.082;2023-06-22T15:40:11;24.90;1.00
48328;DHT22;34136;51.022;7.082;2023-06-22T15:42:57;24.50;1.00
48328;DHT22;34136;51.022;7.082;2023-06-22T15:45:44;24.20;1.00
48328;DHT22;34136;51.022;7.082;2023-06-22T15:48:30;24.00;1.00
48328;DHT22;34136;51.022;7.082;2023-06-22T15:51:17;23.90;1.00
48328;DHT22;34136;51.022;7.082;2023-06-22T15:54:03;24.10;1.00
48328;DHT22;34136;51.022;7.082;2023-06-22T15:56:49;24.10;1.00
48328;DHT22;34136;51.022;7.082;2023-06-22T15:59:36;24.20;1.00
48328;DHT22;34136;51.022;7.082;2023-06-22T16:02:22;24.20;1.00
48328;DHT22;34136;51.022;7.082;2023-06-22T16:05:09;23.80;1.00
48328;DHT22;34136;51.022;7.082;2023-06-22T16:07:56;23.60;1.00
48328;DHT22;34136;51.022;7.082;2023-06-22T16:10:42;23.50;1.00
48328;DHT22;34136;51.022;7.082;2023-06-22T16:13:29;23.40;1.00
48328;DHT22;34136;51.022;7.082;2023-06-22T16:16:15;23.60;1.00
48328;DHT22;34136;51.022;7.082;2023-06-22T16:19:01;23.60;1.00
48328;DHT22;34136;51.022;7.082;2023-06-22T16:21:48;23.80;1.00
48328;DHT22;34136;51.022;7.082;2023-06-22T16:24:35;23.90;1.00
48328;DHT22;34136;51.022;7.082;2023-06-22T16:27:21;23.90;1.00
48328;DHT22;34136;51.022;7.082;2023-06-22T16:30:09;23.90;1.00
48328;DHT22;34136;51.022;7.082;2023-06-22T16:32:56;23.60;1.00
48328;DHT22;34136;51.022;7.082;2023-06-22T16:35:43;23.60;1.00
48328;DHT22;34136;51.022;7.082;2023-06-22T16:38:29;23.60;1.00
48328;DHT22;34136;51.022;7.082;2023-06-22T16:41:16;23.60;1.00
48328;DHT22;34136;51.022;7.082;2023-06-22T16:44:03;23.50;1.00
48328;DHT22;34136;51.022;7.082;2023-06-22T16:46:49;23.50;1.00
48328;DHT22;34136;51.022;7.082;2023-06-22T16:49:36;23.40;1.00
48328;DHT22;34136;51.022;7.082;2023-06-22T16:52:22;23.50;1.00
48328;DHT22;34136;51.022;7.082;2023-06-22T16:55:10;23.40;1.00
48328;DHT22;34136;51.022;7.082;2023-06-22T16:57:58;23.60;1.00
48328;DHT22;34136;51.022;7.082;2023-06-22T17:00:47;23.60;1.00
48328;DHT22;34136;51.022;7.082;2023-06-22T17:03:33;23.70;1.00
48328;DHT22;34136;51.022;7.082;2023-06-22T17:06:21;23.70;1.00
48328;DHT22;34136;51.022;7.082;2023-06-22T17:09:13;23.80;1.00
48328;DHT22;34136;51.022;7.082;2023-06-22T17:12:00;23.80;1.00
48328;DHT22;34136;51.022;7.082;2023-06-22T17:14:46;24.00;1.00
48328;DHT22;34136;51.022;7.082;2023-06-22T17:17:33;24.00;1.00
48328;DHT22;34136;51.022;7.082;2023-06-22T17:20:21;23.90;1.00
48328;DHT22;34136;51.022;7.082;2023-06-22T17:23:07;24.00;1.00
48328;DHT22;34136;51.022;7.082;2023-06-22T17:25:53;24.00;1.00
48328;DHT22;34136;51.022;7.082;2023-06-22T17:31:38;24.00;1.00
48328;DHT22;34136;51.022;7.082;2023-06-22T17:34:29;24.00;1.00
48328;DHT22;34136;51.022;7.082;2023-06-22T17:37:16;24.00;1.00
48328;DHT22;34136;51.022;7.082;2023-06-22T17:40:03;23.90;1.00
48328;DHT22;34136;51.022;7.082;2023-06-22T17:42:49;23.90;1.00
48328;DHT22;34136;51.022;7.082;2023-06-22T17:45:43;23.90;1.00